Time;durP1;ratioP1;P1;durP2;ratioP2;P2;SDS_P1;SDS_P2;PMS_P1;PMS_P2;Temp;Humidity;BMP_temperature;BMP_pressure;BME280_temperature;BME280_humidity;BME280_pressure;Samples;Min_cycle;Max_cycle;Signal;HPM_P1;HPM_P2
2022/11/12 00:00:05;;;;;;;;;;;;;;;;;;351278;28;1524;-64
2022/11/12 00:00:15;;;;;;;;;;;;;;;;;;352576;28;1213;-64
2022/11/12 00:00:25;;;;;;;;;;;;;;;;;;352692;28;1063;-64
2022/11/12 00:00:36;;;;;;;;;;;;;;;;;;352706;28;848;-64
2022/11/12 00:00:48;;;;;;;;;;;;;;;;;;352704;28;952;-65
2022/11/12 00:00:58;;;;;;;;;;;;;;;;;;352721;28;948;-64
2022/11/12 00:01:08;;;;;;;;;;;;;;;;;;352754;28;854;-64
2022/11/12 00:01:18;;;;;;;;;;;;;;;;;;352709;28;1100;-64
2022/11/12 00:01:29;;;;;;;;;;;;;;;;;;352714;28;799;-65
2022/11/12 00:01:39;;;;;;;;;;;;;;;;;;352711;28;916;-65
2022/11/12 00:01:49;;;;;;;;;;;;;;;;;;352695;28;1015;-64
2022/11/12 00:01:59;;;;;;;;;;;;;;;;;;352615;28;849;-64
2022/11/12 00:02:09;;;;;;;;;;;;;;;;;;352704;28;932;-64
2022/11/12 00:02:19;;;;;;;;;;;;;;;;;;352650;28;1031;-65
2022/11/12 00:02:30;;;;;;;;;;;;;;;;;;352776;28;762;-64
2022/11/12 00:02:40;;;;;;;;;;;;;;;;;;352713;28;924;-64
2022/11/12 00:02:50;;;;;;;;;;;;;;;;;;352690;28;913;-64
2022/11/12 00:03:00;;;;;;;;;;;;;;;;;;351485;28;1302;-64
2022/11/12 00:03:10;;;;;;;;;;;;;;;;;;352704;28;995;-64
2022/11/12 00:03:21;;;;;;;;;;;;;;;;;;352745;28;790;-64
2022/11/12 00:03:31;;;;;;;;;;;;;;;;;;352610;28;991;-64
2022/11/12 00:03:41;;;;;;;;;;;;;;;;;;352709;28;1742;-64
2022/11/12 00:03:51;;;;;;;;;;;;;;;;;;352764;28;821;-64
2022/11/12 00:04:01;;;;;;;;;;;;;;;;;;352695;28;1028;-65
2022/11/12 00:04:12;;;;;;;;;;;;;;;;;;352757;28;936;-64
2022/11/12 00:04:22;;;;;;;;;;;;;;;;;;352671;28;932;-64
2022/11/12 00:04:32;;;;;;;;;;;;;;;;;;352734;28;864;-64
2022/11/12 00:04:42;;;;;;;;;;;;;;;;;;352758;28;967;-65
2022/11/12 00:04:52;;;;;;;;;;;;;;;;;;352729;28;909;-65
2022/11/12 00:05:03;;;;;;;;;;;;;;;;;;352653;28;774;-64
2022/11/12 00:05:13;;;;;;;;;;;;;;;;;;351247;28;810;-64
2022/11/12 00:05:23;;;;;;;;;;;;;;;;;;351193;28;932;-64
2022/11/12 00:05:34;;;;;;;;;;;;;;;;;;349911;28;1455;-64
2022/11/12 00:05:44;;;;;;;;;;;;;;;;;;349861;28;850;-64
2022/11/12 00:05:54;;;;;;;;;;;;;;;;;;349851;28;822;-65
2022/11/12 00:06:05;;;;;;;;;;;;;;;;;;349820;28;905;-65
2022/11/12 00:06:15;;;;;;;;;;;;;;;;;;349840;28;972;-64
2022/11/12 00:06:25;;;;;;;;;;;;;;;;;;349837;28;794;-64
2022/11/12 00:06:35;;;;;;;;;;;;;;;;;;349829;28;866;-64
2022/11/12 00:06:45;;;;;;;;;;;;;;;;;;349832;28;964;-65
2022/11/12 00:06:55;;;;;;;;;;;;;;;;;;349842;28;937;-64
2022/11/12 00:07:06;;;;;;;;;;;;;;;;;;349999;28;834;-64
2022/11/12 00:07:16;;;;;;;;;;;;;;;;;;351338;28;921;-65
2022/11/12 00:07:26;;;;;;;;;;;;;;;;;;351261;28;886;-64
2022/11/12 00:07:36;;;;;;;;;;;;;;;;;;351311;28;957;-65
2022/11/12 00:07:46;;;;;;;;;;;;;;;;;;351313;28;932;-64
2022/11/12 00:07:57;;;;;;;;;;;;;;;;;;351320;28;963;-64
2022/11/12 00:08:07;;;;;;;;;;;;;;;;;;351300;28;988;-64
2022/11/12 00:08:17;;;;;;;;;;;;;;;;;;351274;28;784;-64
2022/11/12 00:08:27;;;;;;;;;;;;;;;;;;351312;28;948;-64
2022/11/12 00:08:38;;;;;;;;;;;;;;;;;;351295;28;956;-65
2022/11/12 00:08:48;;;;;;;;;;;;;;;;;;351318;28;1007;-64
2022/11/12 00:08:58;;;;;;;;;;;;;;;;;;351344;28;1000;-64
2022/11/12 00:09:08;;;;;;;;;;;;;;;;;;351289;28;846;-64
2022/11/12 00:09:18;;;;;;;;;;;;;;;;;;351307;28;960;-64
2022/11/12 00:09:29;;;;;;;;;;;;;;;;;;351320;28;917;-64
2022/11/12 00:09:39;;;;;;;;;;;;;;;;;;351272;28;862;-64
2022/11/12 00:09:49;;;;;;;;;;;;;;;;;;351321;28;917;-64
2022/11/12 00:09:59;;;;;;;;;;;;;;;;;;350766;28;2110;-65
2022/11/12 00:10:09;;;;;;;;;;;;;;;;;;351484;28;1853;-65
2022/11/12 00:10:20;;;;;;;;;;;;;;;;;;351299;28;1047;-64
2022/11/12 00:10:31;;;;;;;;;;;;;;;;;;351350;28;936;-64
2022/11/12 00:10:41;;;;;;;;;;;;;;;;;;351365;28;1012;-64
2022/11/12 00:10:51;;;;;;;;;;;;;;;;;;351283;28;991;-65
2022/11/12 00:11:03;;;;;;;;;;;;;;;;;;351331;28;932;-64
2022/11/12 00:11:14;;;;;;;;;;;;;;;;;;351320;28;1497;-65
2022/11/12 00:11:24;;;;;;;;;;;;;;;;;;352406;28;1834;-64
2022/11/12 00:11:34;;;;;;;;;;;;;;;;;;351953;28;1009;-64
2022/11/12 00:11:44;;;;;;;;;;;;;;;;;;350585;28;2098;-65
2022/11/12 00:11:55;;;;;;;;;;;;;;;;;;351158;28;913;-64
2022/11/12 00:12:05;;;;;;;;;;;;;;;;;;351119;28;1033;-65
2022/11/12 00:12:15;;;;;;;;;;;;;;;;;;351308;28;968;-64
2022/11/12 00:12:25;;;;;;;;;;;;;;;;;;351096;28;1120;-65
2022/11/12 00:12:36;;;;;;;;;;;;;;;;;;351350;28;987;-65
2022/11/12 00:12:46;;;;;;;;;;;;;;;;;;352046;28;1171;-64
2022/11/12 00:12:56;;;;;;;;;;;;;;;;;;351552;28;1285;-64
2022/11/12 00:13:06;;;;;;;;;;;;;;;;;;351816;28;1754;-64
2022/11/12 00:13:17;;;;;;;;;;;;;;;;;;352712;28;857;-64
2022/11/12 00:13:27;;;;;;;;;;;;;;;;;;352695;28;842;-65
2022/11/12 00:13:37;;;;;;;;;;;;;;;;;;352740;28;916;-65
2022/11/12 00:13:47;;;;;;;;;;;;;;;;;;352695;28;909;-64
2022/11/12 00:13:58;;;;;;;;;;;;;;;;;;352652;28;1913;-64
2022/11/12 00:14:08;;;;;;;;;;;;;;;;;;352709;28;916;-64
2022/11/12 00:14:18;;;;;;;;;;;;;;;;;;352664;28;917;-65
2022/11/12 00:14:28;;;;;;;;;;;;;;;;;;352024;28;1991;-64
2022/11/12 00:14:38;;;;;;;;;;;;;;;;;;351345;28;1565;-65
2022/11/12 00:14:48;;;;;;;;;;;;;;;;;;351460;28;1795;-65
2022/11/12 00:14:59;;;;;;;;;;;;;;;;;;351094;28;1222;-65
2022/11/12 00:15:10;;;;;;;;;;;;;;;;;;351271;28;1008;-64
2022/11/12 00:15:20;;;;;;;;;;;;;;;;;;351346;28;794;-64
2022/11/12 00:15:30;;;;;;;;;;;;;;;;;;351238;28;968;-65
2022/11/12 00:15:41;;;;;;;;;;;;;;;;;;351235;28;913;-64
2022/11/12 00:15:51;;;;;;;;;;;;;;;;;;351325;28;798;-64
2022/11/12 00:16:01;;;;;;;;;;;;;;;;;;351290;28;1008;-64
2022/11/12 00:16:11;;;;;;;;;;;;;;;;;;351324;28;948;-64
2022/11/12 00:16:21;;;;;;;;;;;;;;;;;;350751;28;2047;-65
2022/11/12 00:16:32;;;;;;;;;;;;;;;;;;351339;28;1542;-64
2022/11/12 00:16:42;;;;;;;;;;;;;;;;;;352405;28;1728;-64
2022/11/12 00:16:52;;;;;;;;;;;;;;;;;;352707;28;1019;-65
2022/11/12 00:17:02;;;;;;;;;;;;;;;;;;350736;28;1972;-65
2022/11/12 00:17:12;;;;;;;;;;;;;;;;;;351286;28;921;-65
2022/11/12 00:17:23;;;;;;;;;;;;;;;;;;351341;28;928;-64
2022/11/12 00:17:33;;;;;;;;;;;;;;;;;;351276;28;932;-65
2022/11/12 00:17:43;;;;;;;;;;;;;;;;;;351248;28;917;-65
2022/11/12 00:17:54;;;;;;;;;;;;;;;;;;351314;28;1043;-65
2022/11/12 00:18:04;;;;;;;;;;;;;;;;;;351296;28;975;-65
2022/11/12 00:18:14;;;;;;;;;;;;;;;;;;351307;28;872;-64
2022/11/12 00:18:24;;;;;;;;;;;;;;;;;;351253;28;924;-64
2022/11/12 00:18:34;;;;;;;;;;;;;;;;;;351337;28;782;-64
2022/11/12 00:18:47;;;;;;;;;;;;;;;;;;351272;28;925;-64
2022/11/12 00:18:57;;;;;;;;;;;;;;;;;;349747;28;1549;-64
2022/11/12 00:19:07;;;;;;;;;;;;;;;;;;349826;28;921;-64
2022/11/12 00:19:17;;;;;;;;;;;;;;;;;;349819;28;1028;-64
2022/11/12 00:19:27;;;;;;;;;;;;;;;;;;349835;28;957;-65
2022/11/12 00:19:37;;;;;;;;;;;;;;;;;;349710;28;940;-65
2022/11/12 00:19:48;;;;;;;;;;;;;;;;;;349700;28;1132;-65
2022/11/12 00:19:58;;;;;;;;;;;;;;;;;;349863;28;929;-65
2022/11/12 00:20:09;;;;;;;;;;;;;;;;;;349819;28;992;-65
2022/11/12 00:20:19;;;;;;;;;;;;;;;;;;349773;28;1059;-65
2022/11/12 00:20:29;;;;;;;;;;;;;;;;;;349659;28;1028;-64
2022/11/12 00:20:40;;;;;;;;;;;;;;;;;;349792;28;936;-64
2022/11/12 00:20:50;;;;;;;;;;;;;;;;;;350140;28;1040;-64
2022/11/12 00:21:00;;;;;;;;;;;;;;;;;;351335;28;846;-64
2022/11/12 00:21:10;;;;;;;;;;;;;;;;;;351296;28;916;-65
2022/11/12 00:21:20;;;;;;;;;;;;;;;;;;351335;28;987;-64
2022/11/12 00:21:31;;;;;;;;;;;;;;;;;;351331;28;968;-64
2022/11/12 00:21:41;;;;;;;;;;;;;;;;;;351207;28;817;-64
2022/11/12 00:21:51;;;;;;;;;;;;;;;;;;350884;28;2098;-65
2022/11/12 00:22:01;;;;;;;;;;;;;;;;;;351795;28;969;-65
2022/11/12 00:22:11;;;;;;;;;;;;;;;;;;352685;28;821;-65
2022/11/12 00:22:22;;;;;;;;;;;;;;;;;;352491;28;1153;-64
2022/11/12 00:22:32;;;;;;;;;;;;;;;;;;352730;28;1003;-65
2022/11/12 00:22:42;;;;;;;;;;;;;;;;;;352723;28;992;-64
2022/11/12 00:22:52;;;;;;;;;;;;;;;;;;352692;28;948;-64
2022/11/12 00:23:03;;;;;;;;;;;;;;;;;;351556;28;1280;-65
2022/11/12 00:23:13;;;;;;;;;;;;;;;;;;350864;28;2039;-65
2022/11/12 00:23:23;;;;;;;;;;;;;;;;;;352190;28;1803;-65
2022/11/12 00:23:33;;;;;;;;;;;;;;;;;;352729;28;774;-64
2022/11/12 00:23:43;;;;;;;;;;;;;;;;;;350991;28;1846;-64
2022/11/12 00:23:54;;;;;;;;;;;;;;;;;;351400;28;861;-64
2022/11/12 00:24:04;;;;;;;;;;;;;;;;;;351282;28;940;-64
2022/11/12 00:24:14;;;;;;;;;;;;;;;;;;351251;28;1009;-64
2022/11/12 00:24:24;;;;;;;;;;;;;;;;;;351286;28;806;-65
2022/11/12 00:24:34;;;;;;;;;;;;;;;;;;351304;28;924;-64
2022/11/12 00:24:45;;;;;;;;;;;;;;;;;;351362;28;842;-65
2022/11/12 00:24:55;;;;;;;;;;;;;;;;;;351064;28;1143;-65
2022/11/12 00:25:05;;;;;;;;;;;;;;;;;;351313;28;861;-65
2022/11/12 00:25:16;;;;;;;;;;;;;;;;;;351332;28;928;-64
2022/11/12 00:25:27;;;;;;;;;;;;;;;;;;351340;28;933;-64
2022/11/12 00:25:37;;;;;;;;;;;;;;;;;;350935;28;2063;-65
2022/11/12 00:25:56;;;;;;;;;;;;;;;;;;351971;28;936;-65
2022/11/12 00:26:06;;;;;;;;;;;;;;;;;;351333;28;2062;-64
2022/11/12 00:26:16;;;;;;;;;;;;;;;;;;351876;28;916;-64
2022/11/12 00:26:26;;;;;;;;;;;;;;;;;;352702;28;901;-64
2022/11/12 00:26:37;;;;;;;;;;;;;;;;;;352696;28;960;-64
2022/11/12 00:26:47;;;;;;;;;;;;;;;;;;352745;28;842;-65
2022/11/12 00:26:57;;;;;;;;;;;;;;;;;;352696;28;983;-65
2022/11/12 00:27:07;;;;;;;;;;;;;;;;;;352677;28;841;-64
2022/11/12 00:27:17;;;;;;;;;;;;;;;;;;352696;28;921;-65
2022/11/12 00:27:28;;;;;;;;;;;;;;;;;;352698;28;1012;-65
2022/11/12 00:27:38;;;;;;;;;;;;;;;;;;352735;28;837;-65
2022/11/12 00:27:48;;;;;;;;;;;;;;;;;;352675;28;973;-65
2022/11/12 00:28:05;;;;;;;;;;;;;;;;;;352655;28;996;-64
2022/11/12 00:28:16;;;;;;;;;;;;;;;;;;352718;28;984;-65
2022/11/12 00:28:26;;;;;;;;;;;;;;;;;;351051;28;2051;-65
2022/11/12 00:28:36;;;;;;;;;;;;;;;;;;351533;28;1798;-65
2022/11/12 00:28:46;;;;;;;;;;;;;;;;;;351328;28;1036;-64
2022/11/12 00:28:56;;;;;;;;;;;;;;;;;;351316;28;908;-64
2022/11/12 00:29:07;;;;;;;;;;;;;;;;;;351229;28;913;-64
2022/11/12 00:29:17;;;;;;;;;;;;;;;;;;351188;28;1192;-64
2022/11/12 00:29:27;;;;;;;;;;;;;;;;;;351123;28;1038;-65
2022/11/12 00:29:37;;;;;;;;;;;;;;;;;;351127;28;1205;-64
2022/11/12 00:29:48;;;;;;;;;;;;;;;;;;351300;28;778;-64
2022/11/12 00:29:58;;;;;;;;;;;;;;;;;;350873;28;2098;-64
2022/11/12 00:30:08;;;;;;;;;;;;;;;;;;351901;28;976;-64
2022/11/12 00:30:19;;;;;;;;;;;;;;;;;;352776;28;904;-65
2022/11/12 00:30:29;;;;;;;;;;;;;;;;;;352666;28;1027;-65
2022/11/12 00:30:39;;;;;;;;;;;;;;;;;;352703;28;888;-65
2022/11/12 00:30:50;;;;;;;;;;;;;;;;;;352732;28;960;-64
2022/11/12 00:31:05;;;;;;;;;;;;;;;;;;352682;28;920;-64
2022/11/12 00:31:15;;;;;;;;;;;;;;;;;;352747;28;821;-64
2022/11/12 00:31:25;;;;;;;;;;;;;;;;;;352722;28;921;-64
2022/11/12 00:31:36;;;;;;;;;;;;;;;;;;352738;28;964;-65
2022/11/12 00:31:46;;;;;;;;;;;;;;;;;;352656;28;845;-64
2022/11/12 00:31:56;;;;;;;;;;;;;;;;;;351834;28;1980;-64
2022/11/12 00:32:07;;;;;;;;;;;;;;;;;;351476;28;1591;-65
2022/11/12 00:32:18;;;;;;;;;;;;;;;;;;351041;28;1585;-65
2022/11/12 00:32:29;;;;;;;;;;;;;;;;;;352733;28;940;-64
2022/11/12 00:32:39;;;;;;;;;;;;;;;;;;351463;28;1325;-65
2022/11/12 00:32:49;;;;;;;;;;;;;;;;;;352676;28;1012;-65
2022/11/12 00:33:03;;;;;;;;;;;;;;;;;;352713;28;805;-64
2022/11/12 00:33:13;;;;;;;;;;;;;;;;;;352700;28;810;-65
2022/11/12 00:33:23;;;;;;;;;;;;;;;;;;352674;28;924;-65
2022/11/12 00:33:33;;;;;;;;;;;;;;;;;;351479;28;1964;-65
2022/11/12 00:33:44;;;;;;;;;;;;;;;;;;351604;28;1644;-65
2022/11/12 00:33:54;;;;;;;;;;;;;;;;;;352691;28;881;-65
2022/11/12 00:34:04;;;;;;;;;;;;;;;;;;352599;28;1914;-64
2022/11/12 00:34:14;;;;;;;;;;;;;;;;;;351728;28;1751;-64
2022/11/12 00:34:24;;;;;;;;;;;;;;;;;;352005;28;1004;-65
2022/11/12 00:34:35;;;;;;;;;;;;;;;;;;352687;28;968;-64
2022/11/12 00:34:45;;;;;;;;;;;;;;;;;;352669;28;826;-65
2022/11/12 00:34:55;;;;;;;;;;;;;;;;;;352679;28;1004;-64
2022/11/12 00:35:06;;;;;;;;;;;;;;;;;;352699;28;968;-64
2022/11/12 00:35:16;;;;;;;;;;;;;;;;;;352670;28;1160;-64
2022/11/12 00:35:26;;;;;;;;;;;;;;;;;;352721;28;806;-64
2022/11/12 00:35:36;;;;;;;;;;;;;;;;;;351638;28;1988;-65
2022/11/12 00:35:47;;;;;;;;;;;;;;;;;;351397;28;1803;-65
2022/11/12 00:35:58;;;;;;;;;;;;;;;;;;352693;28;992;-64
2022/11/12 00:36:08;;;;;;;;;;;;;;;;;;352706;28;912;-65
2022/11/12 00:36:18;;;;;;;;;;;;;;;;;;351491;28;1818;-64
2022/11/12 00:36:29;;;;;;;;;;;;;;;;;;351315;28;897;-65
2022/11/12 00:36:39;;;;;;;;;;;;;;;;;;351318;28;924;-64
2022/11/12 00:36:49;;;;;;;;;;;;;;;;;;351278;28;1015;-64
2022/11/12 00:37:00;;;;;;;;;;;;;;;;;;351253;28;759;-64
2022/11/12 00:37:10;;;;;;;;;;;;;;;;;;350937;28;1872;-64
2022/11/12 00:37:22;;;;;;;;;;;;;;;;;;351310;28;910;-65
2022/11/12 00:37:32;;;;;;;;;;;;;;;;;;351282;28;929;-65
2022/11/12 00:37:42;;;;;;;;;;;;;;;;;;351285;28;976;-64
2022/11/12 00:37:54;;;;;;;;;;;;;;;;;;350802;28;1996;-65
2022/11/12 00:38:04;;;;;;;;;;;;;;;;;;352239;28;1799;-65
2022/11/12 00:38:14;;;;;;;;;;;;;;;;;;352670;28;929;-65
2022/11/12 00:38:24;;;;;;;;;;;;;;;;;;352466;28;1802;-65
2022/11/12 00:38:34;;;;;;;;;;;;;;;;;;351448;28;1857;-65
2022/11/12 00:38:45;;;;;;;;;;;;;;;;;;351099;28;1768;-65
2022/11/12 00:38:55;;;;;;;;;;;;;;;;;;351353;28;755;-65
2022/11/12 00:39:05;;;;;;;;;;;;;;;;;;351336;28;845;-65
2022/11/12 00:39:15;;;;;;;;;;;;;;;;;;351307;28;917;-65
2022/11/12 00:39:26;;;;;;;;;;;;;;;;;;351346;28;813;-64
2022/11/12 00:39:36;;;;;;;;;;;;;;;;;;351255;28;937;-64
2022/11/12 00:39:46;;;;;;;;;;;;;;;;;;351794;28;1483;-65
2022/11/12 00:39:56;;;;;;;;;;;;;;;;;;352724;28;964;-65
2022/11/12 00:40:07;;;;;;;;;;;;;;;;;;352694;28;995;-64
2022/11/12 00:40:17;;;;;;;;;;;;;;;;;;352727;28;968;-64
2022/11/12 00:40:28;;;;;;;;;;;;;;;;;;352582;28;1059;-65
2022/11/12 00:40:38;;;;;;;;;;;;;;;;;;351138;28;2094;-65
2022/11/12 00:40:48;;;;;;;;;;;;;;;;;;351306;28;1810;-65
2022/11/12 00:40:59;;;;;;;;;;;;;;;;;;351255;28;909;-64
2022/11/12 00:41:09;;;;;;;;;;;;;;;;;;350893;28;2054;-65
2022/11/12 00:41:19;;;;;;;;;;;;;;;;;;352056;28;921;-65
2022/11/12 00:41:29;;;;;;;;;;;;;;;;;;352700;28;921;-65
2022/11/12 00:41:39;;;;;;;;;;;;;;;;;;351412;28;1401;-65
2022/11/12 00:41:50;;;;;;;;;;;;;;;;;;351024;28;1027;-65
2022/11/12 00:42:00;;;;;;;;;;;;;;;;;;351316;28;838;-64
2022/11/12 00:42:10;;;;;;;;;;;;;;;;;;351242;28;983;-64
2022/11/12 00:42:21;;;;;;;;;;;;;;;;;;352439;28;1284;-65
2022/11/12 00:42:31;;;;;;;;;;;;;;;;;;352697;28;909;-64
2022/11/12 00:42:41;;;;;;;;;;;;;;;;;;351560;28;1484;-65
2022/11/12 00:42:52;;;;;;;;;;;;;;;;;;352684;28;999;-64
2022/11/12 00:43:02;;;;;;;;;;;;;;;;;;352700;28;955;-65
2022/11/12 00:43:12;;;;;;;;;;;;;;;;;;352472;28;995;-65
2022/11/12 00:43:23;;;;;;;;;;;;;;;;;;351121;28;2075;-64
2022/11/12 00:43:33;;;;;;;;;;;;;;;;;;352000;28;909;-64
2022/11/12 00:43:44;;;;;;;;;;;;;;;;;;352687;28;964;-65
2022/11/12 00:43:54;;;;;;;;;;;;;;;;;;352610;28;918;-65
2022/11/12 00:44:04;;;;;;;;;;;;;;;;;;352703;28;972;-64
2022/11/12 00:44:14;;;;;;;;;;;;;;;;;;352722;28;885;-65
2022/11/12 00:44:25;;;;;;;;;;;;;;;;;;352690;28;830;-65
2022/11/12 00:44:35;;;;;;;;;;;;;;;;;;351126;28;2051;-65
2022/11/12 00:44:45;;;;;;;;;;;;;;;;;;351975;28;890;-64
2022/11/12 00:44:55;;;;;;;;;;;;;;;;;;352737;28;940;-64
2022/11/12 00:45:06;;;;;;;;;;;;;;;;;;352687;28;1007;-64
2022/11/12 00:45:16;;;;;;;;;;;;;;;;;;352700;28;925;-64
2022/11/12 00:45:26;;;;;;;;;;;;;;;;;;352713;28;921;-65
2022/11/12 00:45:37;;;;;;;;;;;;;;;;;;352681;28;810;-64
2022/11/12 00:45:47;;;;;;;;;;;;;;;;;;352700;28;921;-65
2022/11/12 00:45:57;;;;;;;;;;;;;;;;;;352773;28;806;-65
2022/11/12 00:46:07;;;;;;;;;;;;;;;;;;352771;28;837;-65
2022/11/12 00:46:17;;;;;;;;;;;;;;;;;;352681;28;969;-64
2022/11/12 00:46:28;;;;;;;;;;;;;;;;;;352652;28;854;-65
2022/11/12 00:46:38;;;;;;;;;;;;;;;;;;352705;28;1008;-64
2022/11/12 00:46:48;;;;;;;;;;;;;;;;;;352677;28;900;-64
2022/11/12 00:46:58;;;;;;;;;;;;;;;;;;352718;28;967;-65
2022/11/12 00:47:08;;;;;;;;;;;;;;;;;;352704;28;905;-65
2022/11/12 00:47:19;;;;;;;;;;;;;;;;;;352614;28;888;-64
2022/11/12 00:47:29;;;;;;;;;;;;;;;;;;352721;28;968;-64
2022/11/12 00:47:39;;;;;;;;;;;;;;;;;;352740;28;822;-65
2022/11/12 00:47:53;;;;;;;;;;;;;;;;;;352721;28;849;-65
2022/11/12 00:48:03;;;;;;;;;;;;;;;;;;352741;28;746;-65
2022/11/12 00:48:13;;;;;;;;;;;;;;;;;;352667;28;916;-65
2022/11/12 00:48:23;;;;;;;;;;;;;;;;;;351934;28;2079;-65
2022/11/12 00:48:33;;;;;;;;;;;;;;;;;;351352;28;1570;-65
2022/11/12 00:48:43;;;;;;;;;;;;;;;;;;351408;28;1779;-65
2022/11/12 00:48:54;;;;;;;;;;;;;;;;;;351252;28;957;-65
2022/11/12 00:49:04;;;;;;;;;;;;;;;;;;351281;28;917;-65
2022/11/12 00:49:14;;;;;;;;;;;;;;;;;;351289;28;842;-64
2022/11/12 00:49:24;;;;;;;;;;;;;;;;;;351318;28;952;-64
2022/11/12 00:49:34;;;;;;;;;;;;;;;;;;351269;28;1020;-65
2022/11/12 00:49:45;;;;;;;;;;;;;;;;;;351323;28;889;-65
2022/11/12 00:49:55;;;;;;;;;;;;;;;;;;351268;28;967;-64
2022/11/12 00:50:05;;;;;;;;;;;;;;;;;;351346;28;778;-65
2022/11/12 00:50:16;;;;;;;;;;;;;;;;;;351294;28;956;-64
2022/11/12 00:50:26;;;;;;;;;;;;;;;;;;351266;28;1000;-64
2022/11/12 00:50:36;;;;;;;;;;;;;;;;;;351256;28;1036;-65
2022/11/12 00:50:46;;;;;;;;;;;;;;;;;;351291;28;908;-64
2022/11/12 00:51:04;;;;;;;;;;;;;;;;;;351340;28;824;-65
2022/11/12 00:51:14;;;;;;;;;;;;;;;;;;351342;28;968;-65
2022/11/12 00:51:24;;;;;;;;;;;;;;;;;;351203;28;964;-65
2022/11/12 00:51:34;;;;;;;;;;;;;;;;;;351272;28;1016;-64
2022/11/12 00:51:44;;;;;;;;;;;;;;;;;;351302;28;925;-65
2022/11/12 00:51:55;;;;;;;;;;;;;;;;;;351273;28;996;-65
2022/11/12 00:52:05;;;;;;;;;;;;;;;;;;351255;28;955;-65
2022/11/12 00:52:15;;;;;;;;;;;;;;;;;;351295;28;798;-65
2022/11/12 00:52:25;;;;;;;;;;;;;;;;;;351267;28;979;-65
2022/11/12 00:52:35;;;;;;;;;;;;;;;;;;350938;28;1372;-65
2022/11/12 00:52:46;;;;;;;;;;;;;;;;;;350983;28;1115;-65
2022/11/12 00:52:56;;;;;;;;;;;;;;;;;;351233;28;941;-64
2022/11/12 00:53:06;;;;;;;;;;;;;;;;;;351325;28;941;-64
2022/11/12 00:53:16;;;;;;;;;;;;;;;;;;351304;28;789;-65
2022/11/12 00:53:26;;;;;;;;;;;;;;;;;;350730;28;2031;-65
2022/11/12 00:53:37;;;;;;;;;;;;;;;;;;351279;28;972;-64
2022/11/12 00:53:48;;;;;;;;;;;;;;;;;;351055;28;1011;-65
2022/11/12 00:53:58;;;;;;;;;;;;;;;;;;351217;28;1973;-65
2022/11/12 00:54:08;;;;;;;;;;;;;;;;;;351247;28;853;-65
2022/11/12 00:54:18;;;;;;;;;;;;;;;;;;349780;28;976;-64
2022/11/12 00:54:28;;;;;;;;;;;;;;;;;;349887;28;831;-64
2022/11/12 00:54:38;;;;;;;;;;;;;;;;;;349885;28;849;-65
2022/11/12 00:54:49;;;;;;;;;;;;;;;;;;349818;28;921;-64
2022/11/12 00:54:59;;;;;;;;;;;;;;;;;;349976;28;1147;-64
2022/11/12 00:55:09;;;;;;;;;;;;;;;;;;350063;28;845;-65
2022/11/12 00:55:19;;;;;;;;;;;;;;;;;;351248;28;1007;-65
2022/11/12 00:55:30;;;;;;;;;;;;;;;;;;351146;28;2016;-64
2022/11/12 00:55:40;;;;;;;;;;;;;;;;;;351068;28;1310;-65
2022/11/12 00:55:50;;;;;;;;;;;;;;;;;;352307;28;1008;-64
2022/11/12 00:56:04;;;;;;;;;;;;;;;;;;352258;28;2004;-65
2022/11/12 00:56:15;;;;;;;;;;;;;;;;;;352112;28;937;-65
2022/11/12 00:56:25;;;;;;;;;;;;;;;;;;351254;28;957;-65
2022/11/12 00:56:35;;;;;;;;;;;;;;;;;;351297;28;992;-65
2022/11/12 00:56:46;;;;;;;;;;;;;;;;;;351247;28;849;-65
2022/11/12 00:56:56;;;;;;;;;;;;;;;;;;351314;28;980;-64
2022/11/12 00:57:06;;;;;;;;;;;;;;;;;;351206;28;1133;-65
2022/11/12 00:57:16;;;;;;;;;;;;;;;;;;351262;28;812;-65
2022/11/12 00:57:26;;;;;;;;;;;;;;;;;;351256;28;936;-65
2022/11/12 00:57:37;;;;;;;;;;;;;;;;;;351313;28;893;-64
2022/11/12 00:57:47;;;;;;;;;;;;;;;;;;351244;28;932;-65
2022/11/12 00:57:58;;;;;;;;;;;;;;;;;;351299;28;916;-64
2022/11/12 00:58:08;;;;;;;;;;;;;;;;;;351305;28;921;-64
2022/11/12 00:58:18;;;;;;;;;;;;;;;;;;351253;28;953;-65
2022/11/12 00:58:29;;;;;;;;;;;;;;;;;;351281;28;894;-65
2022/11/12 00:58:39;;;;;;;;;;;;;;;;;;351307;28;984;-65
2022/11/12 00:58:49;;;;;;;;;;;;;;;;;;351235;28;919;-64
2022/11/12 00:59:00;;;;;;;;;;;;;;;;;;351375;28;1042;-65
2022/11/12 00:59:10;;;;;;;;;;;;;;;;;;351207;28;1097;-65
2022/11/12 00:59:20;;;;;;;;;;;;;;;;;;351244;28;975;-65
2022/11/12 00:59:30;;;;;;;;;;;;;;;;;;351260;28;971;-65
2022/11/12 00:59:40;;;;;;;;;;;;;;;;;;351081;28;1284;-64
2022/11/12 00:59:50;;;;;;;;;;;;;;;;;;352288;28;1293;-65
2022/11/12 01:00:01;;;;;;;;;;;;;;;;;;352642;28;916;-65
2022/11/12 01:00:15;;;;;;;;;;;;;;;;;;352709;28;824;-64
2022/11/12 01:00:25;;;;;;;;;;;;;;;;;;352779;28;1015;-65
2022/11/12 01:00:35;;;;;;;;;;;;;;;;;;352675;28;939;-65
2022/11/12 01:00:46;;;;;;;;;;;;;;;;;;352570;28;1046;-64
2022/11/12 01:00:56;;;;;;;;;;;;;;;;;;352695;28;932;-65
2022/11/12 01:01:08;;;;;;;;;;;;;;;;;;352707;28;923;-65
2022/11/12 01:01:19;;;;;;;;;;;;;;;;;;352644;28;1789;-64
2022/11/12 01:01:29;;;;;;;;;;;;;;;;;;352679;28;979;-65
2022/11/12 01:01:39;;;;;;;;;;;;;;;;;;352654;28;1015;-65
2022/11/12 01:01:50;;;;;;;;;;;;;;;;;;352701;28;916;-64
2022/11/12 01:02:00;;;;;;;;;;;;;;;;;;352727;28;848;-65
2022/11/12 01:02:10;;;;;;;;;;;;;;;;;;352609;28;1015;-64
2022/11/12 01:02:21;;;;;;;;;;;;;;;;;;352712;28;888;-65
2022/11/12 01:02:31;;;;;;;;;;;;;;;;;;352736;28;904;-65
2022/11/12 01:02:41;;;;;;;;;;;;;;;;;;351472;28;1365;-64
2022/11/12 01:02:51;;;;;;;;;;;;;;;;;;352687;28;991;-65
2022/11/12 01:03:02;;;;;;;;;;;;;;;;;;351132;28;1274;-64
2022/11/12 01:03:12;;;;;;;;;;;;;;;;;;351237;28;971;-64
2022/11/12 01:03:22;;;;;;;;;;;;;;;;;;349770;28;1420;-64
2022/11/12 01:03:33;;;;;;;;;;;;;;;;;;349769;28;948;-64
2022/11/12 01:03:43;;;;;;;;;;;;;;;;;;349803;28;952;-64
2022/11/12 01:03:53;;;;;;;;;;;;;;;;;;349775;28;976;-65
2022/11/12 01:04:03;;;;;;;;;;;;;;;;;;349784;28;913;-65
2022/11/12 01:04:14;;;;;;;;;;;;;;;;;;350518;28;909;-64
2022/11/12 01:04:24;;;;;;;;;;;;;;;;;;351183;28;940;-64
2022/11/12 01:04:34;;;;;;;;;;;;;;;;;;351244;28;773;-64
2022/11/12 01:04:45;;;;;;;;;;;;;;;;;;351196;28;964;-65
2022/11/12 01:04:55;;;;;;;;;;;;;;;;;;351138;28;944;-64
2022/11/12 01:05:05;;;;;;;;;;;;;;;;;;351222;28;924;-64
2022/11/12 01:05:15;;;;;;;;;;;;;;;;;;351626;28;801;-64
2022/11/12 01:05:26;;;;;;;;;;;;;;;;;;352654;28;961;-65
2022/11/12 01:05:36;;;;;;;;;;;;;;;;;;351416;28;2113;-65
2022/11/12 01:05:46;;;;;;;;;;;;;;;;;;351375;28;904;-64
2022/11/12 01:06:22;;;;;;;;;;;;;;;;;;351321;28;825;-64
2022/11/12 01:06:33;;;;;;;;;;;;;;;;;;346214;28;1124;-65
2022/11/12 01:06:43;;;;;;;;;;;;;;;;;;351046;28;1007;-64
2022/11/12 01:06:53;;;;;;;;;;;;;;;;;;351305;28;968;-65
2022/11/12 01:07:03;;;;;;;;;;;;;;;;;;351260;28;1030;-65
2022/11/12 01:07:16;;;;;;;;;;;;;;;;;;351253;28;1003;-64
2022/11/12 01:07:26;;;;;;;;;;;;;;;;;;351306;28;801;-65
2022/11/12 01:07:37;;;;;;;;;;;;;;;;;;351241;28;988;-65
2022/11/12 01:07:47;;;;;;;;;;;;;;;;;;351276;28;967;-64
2022/11/12 01:07:57;;;;;;;;;;;;;;;;;;351236;28;960;-65
2022/11/12 01:08:08;;;;;;;;;;;;;;;;;;351312;28;906;-64
2022/11/12 01:08:18;;;;;;;;;;;;;;;;;;351264;28;1022;-65
2022/11/12 01:08:29;;;;;;;;;;;;;;;;;;351334;28;857;-64
2022/11/12 01:08:39;;;;;;;;;;;;;;;;;;351268;28;932;-64
2022/11/12 01:08:50;;;;;;;;;;;;;;;;;;351366;28;841;-64
2022/11/12 01:09:00;;;;;;;;;;;;;;;;;;351296;28;928;-65
2022/11/12 01:09:10;;;;;;;;;;;;;;;;;;351286;28;860;-64
2022/11/12 01:09:20;;;;;;;;;;;;;;;;;;351253;28;920;-65
2022/11/12 01:09:30;;;;;;;;;;;;;;;;;;351233;28;1035;-64
2022/11/12 01:09:41;;;;;;;;;;;;;;;;;;351257;28;897;-65
2022/11/12 01:09:51;;;;;;;;;;;;;;;;;;351217;28;1736;-65
2022/11/12 01:10:01;;;;;;;;;;;;;;;;;;351339;28;793;-64
2022/11/12 01:10:11;;;;;;;;;;;;;;;;;;351271;28;924;-64
2022/11/12 01:10:21;;;;;;;;;;;;;;;;;;351090;28;1610;-65
2022/11/12 01:10:34;;;;;;;;;;;;;;;;;;350707;28;1684;-65
2022/11/12 01:10:44;;;;;;;;;;;;;;;;;;351468;28;987;-65
2022/11/12 01:10:54;;;;;;;;;;;;;;;;;;352651;28;928;-65
2022/11/12 01:11:08;;;;;;;;;;;;;;;;;;351501;28;1992;-65
2022/11/12 01:11:23;;;;;;;;;;;;;;;;;;352016;28;936;-64
2022/11/12 01:11:33;;;;;;;;;;;;;;;;;;352719;28;920;-64
2022/11/12 01:11:43;;;;;;;;;;;;;;;;;;352656;28;852;-65
2022/11/12 01:11:54;;;;;;;;;;;;;;;;;;352674;28;909;-65
2022/11/12 01:12:04;;;;;;;;;;;;;;;;;;352712;28;900;-65
2022/11/12 01:12:14;;;;;;;;;;;;;;;;;;352686;28;944;-65
2022/11/12 01:12:24;;;;;;;;;;;;;;;;;;352316;28;1340;-65
2022/11/12 01:12:35;;;;;;;;;;;;;;;;;;351275;28;1337;-65
2022/11/12 01:12:45;;;;;;;;;;;;;;;;;;351936;28;1253;-65
2022/11/12 01:12:55;;;;;;;;;;;;;;;;;;351277;28;999;-65
2022/11/12 01:13:05;;;;;;;;;;;;;;;;;;352572;28;1147;-65
2022/11/12 01:13:15;;;;;;;;;;;;;;;;;;352693;28;825;-65
2022/11/12 01:13:26;;;;;;;;;;;;;;;;;;352706;28;901;-65
2022/11/12 01:13:36;;;;;;;;;;;;;;;;;;352739;28;838;-65
2022/11/12 01:13:51;;;;;;;;;;;;;;;;;;351246;28;1381;-64
2022/11/12 01:14:06;;;;;;;;;;;;;;;;;;351202;28;1906;-64
2022/11/12 01:14:16;;;;;;;;;;;;;;;;;;351253;28;932;-65
2022/11/12 01:14:27;;;;;;;;;;;;;;;;;;351298;28;944;-65
2022/11/12 01:14:37;;;;;;;;;;;;;;;;;;350844;28;2032;-65
2022/11/12 01:14:47;;;;;;;;;;;;;;;;;;352161;28;1802;-65
2022/11/12 01:14:57;;;;;;;;;;;;;;;;;;351324;28;1012;-64